Terminal Aerodrome Forecast
Issued by NWS Springfield, MO

Home | Current Version | Previous Version | Text Only | Print | Product List | Glossary On
Versions: 1 2 3 4 5 6 7 8 9 10 11 12 13 14 15 16 17 18 19 20 21
000
FTUS43 KSGF 201700
TAFSGF
TAF
KSGF 201720Z 2018/2118 27009KT P6SM BKN050
     FM202000 33006KT P6SM SKC
     FM210600 VRB03KT 5SM BR SKC
     FM211000 VRB03KT 1SM BR SKC
     FM211500 VRB04KT P6SM SKC=

USA.gov is the U.S. government's official web portal to all federal, state and local government web resources and services.